Time;durP1;ratioP1;P1;durP2;ratioP2;P2;SDS_P1;SDS_P2;PMS_P1;PMS_P2;Temp;Humidity;BMP_temperature;BMP_pressure;BME280_temperature;BME280_humidity;BME280_pressure;Samples;Min_cycle;Max_cycle;Signal;HPM_P1;HPM_P2
2022/10/02 00:02:14;;;;;;;;;;;;;;;;;;5115088;28;1404;-45
2022/10/02 00:04:48;;;;;;;;;;;;;;;;;;5114910;28;2098;-43
2022/10/02 00:07:17;;;;;;;;;;;;;;;;;;5115322;28;1477;-46
2022/10/02 00:09:56;;;;;;;;;;;;;;;;;;5115134;28;1985;-43
2022/10/02 00:12:25;;;;;;;;;;;;;;;;;;5114894;27;1904;-44
2022/10/02 00:14:55;;;;;;;;;;;;;;;;;;5114705;28;1976;-41
2022/10/02 00:17:28;;;;;;;;;;;;;;;;;;5115208;28;1686;-40
2022/10/02 00:19:55;;;;;;;;;;;;;;;;;;5114660;28;1861;-43
2022/10/02 00:22:30;;;;;;;;;;;;;;;;;;5114702;28;1708;-41
2022/10/02 00:24:57;;;;;;;;;;;;;;;;;;5114525;28;2006;-41
2022/10/02 00:27:36;;;;;;;;;;;;;;;;;;5114681;28;1512;-43
2022/10/02 00:30:04;;;;;;;;;;;;;;;;;;5113579;28;1826;-43
2022/10/02 00:32:40;;;;;;;;;;;;;;;;;;5117741;27;1817;-43
2022/10/02 00:35:26;;;;;;;;;;;;;;;;;;5135095;27;1910;-42
2022/10/02 00:37:53;;;;;;;;;;;;;;;;;;5134955;27;1368;-41
2022/10/02 00:40:58;;;;;;;;;;;;;;;;;;5134795;27;1978;-42
2022/10/02 00:43:34;;;;;;;;;;;;;;;;;;5070981;28;2367;-43
2022/10/02 00:46:15;;;;;;;;;;;;;;;;;;5071344;28;1958;-44
2022/10/02 00:48:45;;;;;;;;;;;;;;;;;;5111256;27;1578;-42
2022/10/02 00:51:12;;;;;;;;;;;;;;;;;;5134858;27;1656;-42
2022/10/02 00:53:46;;;;;;;;;;;;;;;;;;5134881;27;2304;-43
2022/10/02 00:56:37;;;;;;;;;;;;;;;;;;5134957;27;1913;-41
2022/10/02 00:59:04;;;;;;;;;;;;;;;;;;5126487;27;1840;-42
2022/10/02 01:01:37;;;;;;;;;;;;;;;;;;5134381;27;1881;-43
2022/10/02 01:04:08;;;;;;;;;;;;;;;;;;5134259;27;1819;-42
2022/10/02 01:06:36;;;;;;;;;;;;;;;;;;5134533;27;1638;-43
2022/10/02 01:09:03;;;;;;;;;;;;;;;;;;5134361;27;1825;-42
2022/10/02 01:11:30;;;;;;;;;;;;;;;;;;5134664;27;2218;-42
2022/10/02 01:13:58;;;;;;;;;;;;;;;;;;5134440;27;1687;-41
2022/10/02 01:16:25;;;;;;;;;;;;;;;;;;5126225;27;1939;-42
2022/10/02 01:18:52;;;;;;;;;;;;;;;;;;5112999;27;1631;-40
2022/10/02 01:21:22;;;;;;;;;;;;;;;;;;5113519;28;1789;-44
2022/10/02 01:23:56;;;;;;;;;;;;;;;;;;5113148;28;1934;-41
2022/10/02 01:26:23;;;;;;;;;;;;;;;;;;5116728;27;2046;-43
2022/10/02 01:28:51;;;;;;;;;;;;;;;;;;5133713;27;1955;-40
2022/10/02 01:31:18;;;;;;;;;;;;;;;;;;5132809;27;2335;-40
2022/10/02 01:33:48;;;;;;;;;;;;;;;;;;5119878;27;2052;-43
2022/10/02 01:36:15;;;;;;;;;;;;;;;;;;5113517;28;2065;-42
2022/10/02 01:38:43;;;;;;;;;;;;;;;;;;5113428;28;2103;-41
2022/10/02 01:41:11;;;;;;;;;;;;;;;;;;5112992;28;1974;-42
2022/10/02 01:43:41;;;;;;;;;;;;;;;;;;5113219;28;2167;-41
2022/10/02 01:46:20;;;;;;;;;;;;;;;;;;5117660;27;1519;-43
2022/10/02 01:49:06;;;;;;;;;;;;;;;;;;5134013;27;2056;-40
2022/10/02 01:51:39;;;;;;;;;;;;;;;;;;5132550;27;1450;-40
2022/10/02 01:54:12;;;;;;;;;;;;;;;;;;5132773;27;1849;-42
2022/10/02 01:56:39;;;;;;;;;;;;;;;;;;5133690;27;1925;-42
2022/10/02 01:59:14;;;;;;;;;;;;;;;;;;5133978;27;1890;-41
2022/10/02 02:01:53;;;;;;;;;;;;;;;;;;5132834;27;2028;-42
2022/10/02 02:04:20;;;;;;;;;;;;;;;;;;5112832;28;2194;-42
2022/10/02 02:06:53;;;;;;;;;;;;;;;;;;5113274;28;1686;-41
2022/10/02 02:09:30;;;;;;;;;;;;;;;;;;5113253;28;2000;-44
2022/10/02 02:12:07;;;;;;;;;;;;;;;;;;5113087;28;1648;-44
2022/10/02 02:14:38;;;;;;;;;;;;;;;;;;5112027;28;1898;-44
2022/10/02 02:17:11;;;;;;;;;;;;;;;;;;5112791;28;1698;-45
2022/10/02 02:19:47;;;;;;;;;;;;;;;;;;5111890;28;2055;-41
2022/10/02 02:22:26;;;;;;;;;;;;;;;;;;5121016;28;1971;-41
2022/10/02 02:24:56;;;;;;;;;;;;;;;;;;5112615;28;1762;-43
2022/10/02 02:27:25;;;;;;;;;;;;;;;;;;5112626;28;1239;-41
2022/10/02 02:29:56;;;;;;;;;;;;;;;;;;5112125;28;1752;-38
2022/10/02 02:32:26;;;;;;;;;;;;;;;;;;5113379;28;1817;-41
2022/10/02 02:34:56;;;;;;;;;;;;;;;;;;5133005;27;1976;-41
2022/10/02 02:37:24;;;;;;;;;;;;;;;;;;5132940;27;2001;-44
2022/10/02 02:39:54;;;;;;;;;;;;;;;;;;5132931;28;1900;-43
2022/10/02 02:42:23;;;;;;;;;;;;;;;;;;5133140;27;1899;-44
2022/10/02 02:44:52;;;;;;;;;;;;;;;;;;5120348;27;1950;-43
2022/10/02 02:47:21;;;;;;;;;;;;;;;;;;5112085;28;1971;-42
2022/10/02 02:50:07;;;;;;;;;;;;;;;;;;5112477;28;1549;-42
2022/10/02 02:52:35;;;;;;;;;;;;;;;;;;5112415;28;2407;-42
2022/10/02 02:55:06;;;;;;;;;;;;;;;;;;5112346;28;2033;-43
2022/10/02 02:57:44;;;;;;;;;;;;;;;;;;5111941;28;1866;-42
2022/10/02 03:00:14;;;;;;;;;;;;;;;;;;5112153;28;1749;-43
2022/10/02 03:02:41;;;;;;;;;;;;;;;;;;5112224;28;1729;-43
2022/10/02 03:05:15;;;;;;;;;;;;;;;;;;5112231;28;1739;-44
2022/10/02 03:07:52;;;;;;;;;;;;;;;;;;5112688;28;2112;-41
2022/10/02 03:10:31;;;;;;;;;;;;;;;;;;5112494;28;2040;-40
2022/10/02 03:13:10;;;;;;;;;;;;;;;;;;5112286;28;1998;-46
2022/10/02 03:15:52;;;;;;;;;;;;;;;;;;5111997;28;2036;-43
2022/10/02 03:18:19;;;;;;;;;;;;;;;;;;5111283;28;2076;-43
2022/10/02 03:21:22;;;;;;;;;;;;;;;;;;5122513;28;1567;-45
2022/10/02 03:24:01;;;;;;;;;;;;;;;;;;5069549;28;1705;-42
2022/10/02 03:26:33;;;;;;;;;;;;;;;;;;5117418;27;2243;-45
2022/10/02 03:29:04;;;;;;;;;;;;;;;;;;5115988;28;2320;-43
2022/10/02 03:31:32;;;;;;;;;;;;;;;;;;5132481;27;1842;-45
2022/10/02 03:34:00;;;;;;;;;;;;;;;;;;5120386;27;2095;-43
2022/10/02 03:36:27;;;;;;;;;;;;;;;;;;5115682;28;2128;-44
2022/10/02 03:38:55;;;;;;;;;;;;;;;;;;5115908;28;1757;-44
2022/10/02 03:41:43;;;;;;;;;;;;;;;;;;5114424;28;1494;-43
2022/10/02 03:44:10;;;;;;;;;;;;;;;;;;5115491;27;1406;-42
2022/10/02 03:46:37;;;;;;;;;;;;;;;;;;5115681;28;1814;-43
2022/10/02 03:49:05;;;;;;;;;;;;;;;;;;5114557;28;1742;-42
2022/10/02 03:51:32;;;;;;;;;;;;;;;;;;5115341;28;2015;-42
2022/10/02 03:53:59;;;;;;;;;;;;;;;;;;5115612;27;1771;-42
2022/10/02 03:56:43;;;;;;;;;;;;;;;;;;5113969;27;2049;-43
2022/10/02 03:59:13;;;;;;;;;;;;;;;;;;5134100;27;2281;-43
2022/10/02 04:01:47;;;;;;;;;;;;;;;;;;5136072;27;1827;-43
2022/10/02 04:04:24;;;;;;;;;;;;;;;;;;5134819;27;1867;-42
2022/10/02 04:06:57;;;;;;;;;;;;;;;;;;5135598;27;1734;-44
2022/10/02 04:09:30;;;;;;;;;;;;;;;;;;5135096;27;2619;-44
2022/10/02 04:12:05;;;;;;;;;;;;;;;;;;5131944;27;1718;-43
2022/10/02 04:14:38;;;;;;;;;;;;;;;;;;5114261;28;1865;-42
2022/10/02 04:17:12;;;;;;;;;;;;;;;;;;5129730;27;1977;-43
2022/10/02 04:19:48;;;;;;;;;;;;;;;;;;5135054;27;1889;-44
2022/10/02 04:22:25;;;;;;;;;;;;;;;;;;5132546;27;1917;-41
2022/10/02 04:25:17;;;;;;;;;;;;;;;;;;5114670;28;1976;-43
2022/10/02 04:28:12;;;;;;;;;;;;;;;;;;5113211;28;2159;-42
2022/10/02 04:30:40;;;;;;;;;;;;;;;;;;5125668;27;1690;-44
2022/10/02 04:33:13;;;;;;;;;;;;;;;;;;5122627;27;1646;-40
2022/10/02 04:35:51;;;;;;;;;;;;;;;;;;5135021;27;1965;-42
2022/10/02 04:38:19;;;;;;;;;;;;;;;;;;5134351;27;1809;-40
2022/10/02 04:40:50;;;;;;;;;;;;;;;;;;5134956;27;1925;-40
2022/10/02 04:43:30;;;;;;;;;;;;;;;;;;5134224;27;1809;-40
2022/10/02 04:45:59;;;;;;;;;;;;;;;;;;5134940;27;1387;-39
2022/10/02 04:48:35;;;;;;;;;;;;;;;;;;5133087;27;2190;-45
2022/10/02 04:51:11;;;;;;;;;;;;;;;;;;5121309;27;1858;-46
2022/10/02 04:53:43;;;;;;;;;;;;;;;;;;5113802;28;1821;-44
2022/10/02 04:56:28;;;;;;;;;;;;;;;;;;5114772;27;1898;-43
2022/10/02 04:59:04;;;;;;;;;;;;;;;;;;5123817;27;2321;-50
2022/10/02 05:01:50;;;;;;;;;;;;;;;;;;5128669;27;1335;-56
2022/10/02 05:04:17;;;;;;;;;;;;;;;;;;5134815;27;1554;-54
2022/10/02 05:07:02;;;;;;;;;;;;;;;;;;5134630;27;1742;-52
2022/10/02 05:09:57;;;;;;;;;;;;;;;;;;5133947;27;1579;-52
2022/10/02 05:12:34;;;;;;;;;;;;;;;;;;5127474;27;1758;-55
2022/10/02 05:15:17;;;;;;;;;;;;;;;;;;5134137;27;1658;-53
2022/10/02 05:17:54;;;;;;;;;;;;;;;;;;5134155;27;1902;-53
2022/10/02 05:20:36;;;;;;;;;;;;;;;;;;5134009;27;1889;-51
2022/10/02 05:23:21;;;;;;;;;;;;;;;;;;5134313;27;1679;-54
2022/10/02 05:25:58;;;;;;;;;;;;;;;;;;5134499;27;1870;-55
2022/10/02 05:28:32;;;;;;;;;;;;;;;;;;5133899;27;2160;-53
2022/10/02 05:31:08;;;;;;;;;;;;;;;;;;5134231;27;1854;-53
2022/10/02 05:33:54;;;;;;;;;;;;;;;;;;5121779;27;2183;-51
2022/10/02 05:36:38;;;;;;;;;;;;;;;;;;5113319;28;2441;-54
2022/10/02 05:39:14;;;;;;;;;;;;;;;;;;5113250;28;1916;-54
2022/10/02 05:41:56;;;;;;;;;;;;;;;;;;5113426;28;1784;-52
2022/10/02 05:44:26;;;;;;;;;;;;;;;;;;5113063;28;2105;-55
2022/10/02 05:47:00;;;;;;;;;;;;;;;;;;5113101;28;1774;-54
2022/10/02 05:49:47;;;;;;;;;;;;;;;;;;5112141;28;1693;-55
2022/10/02 05:52:35;;;;;;;;;;;;;;;;;;5102978;28;1793;-54
2022/10/02 05:55:02;;;;;;;;;;;;;;;;;;5113153;28;2069;-53
2022/10/02 05:57:30;;;;;;;;;;;;;;;;;;5112605;28;1953;-55
2022/10/02 06:00:00;;;;;;;;;;;;;;;;;;5113127;28;1494;-53
2022/10/02 06:02:43;;;;;;;;;;;;;;;;;;5113002;28;1839;-53
2022/10/02 06:05:17;;;;;;;;;;;;;;;;;;5113005;28;1615;-55
2022/10/02 06:07:46;;;;;;;;;;;;;;;;;;5112892;28;1868;-55
2022/10/02 06:10:18;;;;;;;;;;;;;;;;;;5112648;28;1697;-56
2022/10/02 06:12:45;;;;;;;;;;;;;;;;;;5112736;28;1698;-51
2022/10/02 06:15:16;;;;;;;;;;;;;;;;;;5112820;28;1524;-53
2022/10/02 06:17:46;;;;;;;;;;;;;;;;;;5112488;28;2017;-56
2022/10/02 06:20:19;;;;;;;;;;;;;;;;;;5112551;28;1816;-51
2022/10/02 06:22:50;;;;;;;;;;;;;;;;;;5113106;28;1615;-54
2022/10/02 06:25:23;;;;;;;;;;;;;;;;;;5112225;28;1929;-53
2022/10/02 06:27:54;;;;;;;;;;;;;;;;;;5111900;28;1653;-53
2022/10/02 06:30:21;;;;;;;;;;;;;;;;;;5112857;28;2042;-54
2022/10/02 06:33:04;;;;;;;;;;;;;;;;;;5118394;28;1877;-57
2022/10/02 06:35:53;;;;;;;;;;;;;;;;;;5133095;27;1961;-54
2022/10/02 06:38:20;;;;;;;;;;;;;;;;;;5133245;28;1573;-54
2022/10/02 06:40:59;;;;;;;;;;;;;;;;;;5125358;27;1990;-52
2022/10/02 06:43:35;;;;;;;;;;;;;;;;;;5112297;28;1880;-55
2022/10/02 06:46:21;;;;;;;;;;;;;;;;;;5119533;28;1922;-56
2022/10/02 06:48:54;;;;;;;;;;;;;;;;;;5133025;27;2086;-56
2022/10/02 06:51:25;;;;;;;;;;;;;;;;;;5133349;27;1559;-52
2022/10/02 06:54:00;;;;;;;;;;;;;;;;;;5133130;28;1834;-53
2022/10/02 06:56:53;;;;;;;;;;;;;;;;;;5132854;27;1958;-53
2022/10/02 06:59:26;;;;;;;;;;;;;;;;;;5109504;27;1459;-56
2022/10/02 07:02:03;;;;;;;;;;;;;;;;;;5136885;27;1559;-56
2022/10/02 07:04:31;;;;;;;;;;;;;;;;;;5136079;27;2001;-55
2022/10/02 07:07:17;;;;;;;;;;;;;;;;;;5136781;27;1663;-56
2022/10/02 07:09:59;;;;;;;;;;;;;;;;;;5136424;27;2052;-56
2022/10/02 07:12:29;;;;;;;;;;;;;;;;;;5136840;27;2013;-55
2022/10/02 07:14:57;;;;;;;;;;;;;;;;;;5135477;27;1928;-55
2022/10/02 07:17:27;;;;;;;;;;;;;;;;;;5136590;27;2015;-53
2022/10/02 07:20:06;;;;;;;;;;;;;;;;;;5136772;27;1745;-53
2022/10/02 07:22:46;;;;;;;;;;;;;;;;;;5136631;27;1888;-48
2022/10/02 07:25:16;;;;;;;;;;;;;;;;;;5136255;27;1472;-54
2022/10/02 07:27:46;;;;;;;;;;;;;;;;;;5136683;27;1611;-51
2022/10/02 07:30:15;;;;;;;;;;;;;;;;;;5136197;27;1972;-56
2022/10/02 07:32:47;;;;;;;;;;;;;;;;;;5131387;27;1540;-50
2022/10/02 07:35:18;;;;;;;;;;;;;;;;;;5115705;28;1363;-56
2022/10/02 07:37:51;;;;;;;;;;;;;;;;;;5115343;28;1905;-49
2022/10/02 07:40:24;;;;;;;;;;;;;;;;;;5115690;28;1843;-57
2022/10/02 07:42:57;;;;;;;;;;;;;;;;;;5115726;28;1765;-57
2022/10/02 07:45:26;;;;;;;;;;;;;;;;;;5115516;28;1667;-51
2022/10/02 07:48:05;;;;;;;;;;;;;;;;;;5115480;28;1919;-55
2022/10/02 07:50:45;;;;;;;;;;;;;;;;;;5120423;27;1335;-50
2022/10/02 07:53:23;;;;;;;;;;;;;;;;;;5132783;27;2101;-53
2022/10/02 07:55:52;;;;;;;;;;;;;;;;;;5135933;27;1437;-48
2022/10/02 07:58:37;;;;;;;;;;;;;;;;;;5135591;27;1980;-55
2022/10/02 08:01:07;;;;;;;;;;;;;;;;;;5135732;27;1586;-53
2022/10/02 08:03:38;;;;;;;;;;;;;;;;;;5135934;27;1956;-53
2022/10/02 08:06:06;;;;;;;;;;;;;;;;;;5135771;27;1361;-56
2022/10/02 08:08:46;;;;;;;;;;;;;;;;;;5125844;27;1930;-49
2022/10/02 08:11:13;;;;;;;;;;;;;;;;;;5114031;28;1574;-53
2022/10/02 08:14:03;;;;;;;;;;;;;;;;;;5114945;28;1969;-52
2022/10/02 08:16:46;;;;;;;;;;;;;;;;;;5106674;28;2094;-55
2022/10/02 08:19:14;;;;;;;;;;;;;;;;;;5114695;28;1680;-57
2022/10/02 08:21:47;;;;;;;;;;;;;;;;;;5114880;28;1605;-53
2022/10/02 08:24:14;;;;;;;;;;;;;;;;;;5115040;28;2137;-55
2022/10/02 08:26:50;;;;;;;;;;;;;;;;;;5114897;28;1919;-55
2022/10/02 08:29:33;;;;;;;;;;;;;;;;;;5115050;28;2459;-53
2022/10/02 08:32:01;;;;;;;;;;;;;;;;;;5114816;28;1179;-51
2022/10/02 08:34:31;;;;;;;;;;;;;;;;;;5134604;27;1584;-53
2022/10/02 08:37:02;;;;;;;;;;;;;;;;;;5135175;27;2257;-53
2022/10/02 08:39:49;;;;;;;;;;;;;;;;;;5134802;27;1857;-54
2022/10/02 08:42:35;;;;;;;;;;;;;;;;;;5134892;27;1746;-53
2022/10/02 08:45:02;;;;;;;;;;;;;;;;;;5134917;27;2100;-49
2022/10/02 08:47:44;;;;;;;;;;;;;;;;;;5134870;27;1399;-59
2022/10/02 08:50:28;;;;;;;;;;;;;;;;;;5134623;27;1689;-53
2022/10/02 08:53:14;;;;;;;;;;;;;;;;;;5134800;27;1857;-57
2022/10/02 08:55:46;;;;;;;;;;;;;;;;;;5134688;27;1470;-57
2022/10/02 08:58:13;;;;;;;;;;;;;;;;;;5134553;27;2089;-59
2022/10/02 09:01:13;;;;;;;;;;;;;;;;;;5132965;27;1742;-60
2022/10/02 09:03:46;;;;;;;;;;;;;;;;;;5100295;27;2014;-55
2022/10/02 09:06:33;;;;;;;;;;;;;;;;;;5134296;27;1788;-60
2022/10/02 09:09:01;;;;;;;;;;;;;;;;;;5134287;27;1662;-53
2022/10/02 09:11:28;;;;;;;;;;;;;;;;;;5133560;27;1766;-60
2022/10/02 09:14:09;;;;;;;;;;;;;;;;;;5134385;27;1404;-59
2022/10/02 09:16:36;;;;;;;;;;;;;;;;;;5134040;27;1975;-57
2022/10/02 09:19:22;;;;;;;;;;;;;;;;;;5133726;27;1846;-59
2022/10/02 09:21:50;;;;;;;;;;;;;;;;;;5134190;27;2042;-59
2022/10/02 09:24:29;;;;;;;;;;;;;;;;;;5134169;27;1890;-55
2022/10/02 09:27:07;;;;;;;;;;;;;;;;;;5133944;27;1750;-57
2022/10/02 09:29:37;;;;;;;;;;;;;;;;;;5133821;27;2003;-54
2022/10/02 09:32:26;;;;;;;;;;;;;;;;;;5133983;27;1596;-59
2022/10/02 09:35:10;;;;;;;;;;;;;;;;;;5134054;27;2002;-60
2022/10/02 09:37:47;;;;;;;;;;;;;;;;;;5133707;27;2296;-57
2022/10/02 09:40:31;;;;;;;;;;;;;;;;;;5133588;27;2161;-51
2022/10/02 09:43:14;;;;;;;;;;;;;;;;;;5133810;27;1473;-52
2022/10/02 09:45:50;;;;;;;;;;;;;;;;;;5133962;27;2102;-55
2022/10/02 09:48:35;;;;;;;;;;;;;;;;;;5133817;27;1646;-52
2022/10/02 09:51:04;;;;;;;;;;;;;;;;;;5133140;27;1556;-57
2022/10/02 09:53:49;;;;;;;;;;;;;;;;;;5133926;27;1367;-52
2022/10/02 09:56:19;;;;;;;;;;;;;;;;;;5133616;27;1667;-53
2022/10/02 09:59:07;;;;;;;;;;;;;;;;;;5133681;27;1957;-59
2022/10/02 10:01:53;;;;;;;;;;;;;;;;;;5133608;27;1477;-56
2022/10/02 10:04:24;;;;;;;;;;;;;;;;;;5133184;27;2135;-53
2022/10/02 10:07:22;;;;;;;;;;;;;;;;;;5133311;27;2085;-59
2022/10/02 10:10:08;;;;;;;;;;;;;;;;;;5133721;27;2173;-59
2022/10/02 10:12:35;;;;;;;;;;;;;;;;;;5133266;27;1732;-58
2022/10/02 10:15:08;;;;;;;;;;;;;;;;;;5133451;27;1464;-58
2022/10/02 10:17:55;;;;;;;;;;;;;;;;;;5131952;28;2232;-58
2022/10/02 10:20:53;;;;;;;;;;;;;;;;;;5133314;27;2118;-55
2022/10/02 10:23:25;;;;;;;;;;;;;;;;;;5120933;28;1899;-54
2022/10/02 10:26:01;;;;;;;;;;;;;;;;;;5133153;27;1642;-55
2022/10/02 10:28:39;;;;;;;;;;;;;;;;;;5133218;27;1277;-58
2022/10/02 10:31:08;;;;;;;;;;;;;;;;;;5133167;28;2115;-54
2022/10/02 10:33:38;;;;;;;;;;;;;;;;;;5120977;27;1504;-58
2022/10/02 10:38:30;;;;;;;;;;;;;;;;;;5115924;28;2005;-52
2022/10/02 10:39:19;;;;;;;;;;;;;;;;;;5116747;28;1957;-58
2022/10/02 10:41:56;;;;;;;;;;;;;;;;;;5068412;28;2030;-57
2022/10/02 10:44:42;;;;;;;;;;;;;;;;;;5095914;28;1789;-57
2022/10/02 10:47:17;;;;;;;;;;;;;;;;;;5095960;28;1692;-57
2022/10/02 10:49:48;;;;;;;;;;;;;;;;;;5096390;28;1678;-58
2022/10/02 10:52:21;;;;;;;;;;;;;;;;;;5096282;28;1602;-55
2022/10/02 10:54:53;;;;;;;;;;;;;;;;;;5096010;28;1812;-52
2022/10/02 10:57:40;;;;;;;;;;;;;;;;;;5096377;28;1969;-54
2022/10/02 11:00:22;;;;;;;;;;;;;;;;;;5096296;28;1756;-56
2022/10/02 11:03:08;;;;;;;;;;;;;;;;;;5096228;28;1694;-47
2022/10/02 11:05:50;;;;;;;;;;;;;;;;;;5096166;28;1938;-57
2022/10/02 11:08:25;;;;;;;;;;;;;;;;;;5096048;28;1550;-58
2022/10/02 11:10:52;;;;;;;;;;;;;;;;;;5096052;28;1717;-54
2022/10/02 11:13:32;;;;;;;;;;;;;;;;;;5095787;28;1863;-58
2022/10/02 11:16:05;;;;;;;;;;;;;;;;;;5095746;28;1387;-55
2022/10/02 11:18:37;;;;;;;;;;;;;;;;;;5095382;28;2141;-58
2022/10/02 11:21:23;;;;;;;;;;;;;;;;;;5095672;28;1903;-59
2022/10/02 11:23:59;;;;;;;;;;;;;;;;;;5095817;28;1498;-49
2022/10/02 11:26:35;;;;;;;;;;;;;;;;;;5095155;28;1361;-53
2022/10/02 11:29:21;;;;;;;;;;;;;;;;;;5095279;28;2341;-55
2022/10/02 11:32:03;;;;;;;;;;;;;;;;;;5095718;28;1608;-52
2022/10/02 11:34:49;;;;;;;;;;;;;;;;;;5115408;28;1614;-55
2022/10/02 11:37:37;;;;;;;;;;;;;;;;;;5115299;28;1980;-53
2022/10/02 11:40:30;;;;;;;;;;;;;;;;;;5115857;27;1753;-55
2022/10/02 11:43:17;;;;;;;;;;;;;;;;;;5136214;27;1643;-57
2022/10/02 11:45:54;;;;;;;;;;;;;;;;;;5136030;27;1365;-53
2022/10/02 11:48:39;;;;;;;;;;;;;;;;;;5135836;27;1674;-55
2022/10/02 11:51:22;;;;;;;;;;;;;;;;;;5136251;27;2023;-58
2022/10/02 11:53:58;;;;;;;;;;;;;;;;;;5136126;27;1240;-53
2022/10/02 11:56:52;;;;;;;;;;;;;;;;;;5135988;27;1409;-52
2022/10/02 11:59:33;;;;;;;;;;;;;;;;;;5136199;27;1969;-56
2022/10/02 12:02:13;;;;;;;;;;;;;;;;;;5135792;27;1969;-57
2022/10/02 12:05:04;;;;;;;;;;;;;;;;;;5135932;27;1708;-57
2022/10/02 12:07:51;;;;;;;;;;;;;;;;;;5135963;27;2173;-54
2022/10/02 12:10:24;;;;;;;;;;;;;;;;;;5135544;27;2010;-56
2022/10/02 12:13:01;;;;;;;;;;;;;;;;;;5135316;27;1953;-46
2022/10/02 12:15:28;;;;;;;;;;;;;;;;;;5135747;27;2144;-55
2022/10/02 12:18:10;;;;;;;;;;;;;;;;;;5135597;27;1985;-50
2022/10/02 12:29:13;;;;;;;;;;;;;;;;;;5114921;27;1600;-48
2022/10/02 12:31:50;;;;;;;;;;;;;;;;;;5114574;28;2008;-54
2022/10/02 12:34:23;;;;;;;;;;;;;;;;;;5114841;28;1793;-53
2022/10/02 12:37:05;;;;;;;;;;;;;;;;;;5115000;28;1643;-55
2022/10/02 12:39:41;;;;;;;;;;;;;;;;;;5114676;28;2099;-52
2022/10/02 12:42:27;;;;;;;;;;;;;;;;;;5113661;28;2223;-51
2022/10/02 12:45:15;;;;;;;;;;;;;;;;;;5114186;28;2037;-52
2022/10/02 12:47:43;;;;;;;;;;;;;;;;;;5113549;28;1456;-55
2022/10/02 12:50:16;;;;;;;;;;;;;;;;;;5114109;28;2161;-56
2022/10/02 12:52:52;;;;;;;;;;;;;;;;;;5114050;28;1633;-57
2022/10/02 12:55:44;;;;;;;;;;;;;;;;;;5114185;28;1813;-54
2022/10/02 12:58:31;;;;;;;;;;;;;;;;;;5129129;27;1894;-57
2022/10/02 13:01:07;;;;;;;;;;;;;;;;;;5120435;27;2010;-55
2022/10/02 13:03:40;;;;;;;;;;;;;;;;;;5134545;27;2132;-51
2022/10/02 13:06:10;;;;;;;;;;;;;;;;;;5134253;27;2113;-57
2022/10/02 13:08:41;;;;;;;;;;;;;;;;;;5134520;27;2080;-55
2022/10/02 13:11:27;;;;;;;;;;;;;;;;;;5134428;27;1522;-53
2022/10/02 13:14:10;;;;;;;;;;;;;;;;;;5134184;27;1953;-50
2022/10/02 13:16:47;;;;;;;;;;;;;;;;;;5134164;27;1469;-53
2022/10/02 13:19:22;;;;;;;;;;;;;;;;;;5134224;27;1988;-49
2022/10/02 13:21:53;;;;;;;;;;;;;;;;;;5134279;27;2056;-52
2022/10/02 13:24:40;;;;;;;;;;;;;;;;;;5134392;27;1819;-50
2022/10/02 13:27:15;;;;;;;;;;;;;;;;;;5133438;27;1684;-54
2022/10/02 13:29:56;;;;;;;;;;;;;;;;;;5134008;27;1684;-53
2022/10/02 13:32:23;;;;;;;;;;;;;;;;;;5131915;27;1996;-55
2022/10/02 13:34:57;;;;;;;;;;;;;;;;;;5113483;28;1653;-50
2022/10/02 13:37:32;;;;;;;;;;;;;;;;;;5113486;28;1892;-54
2022/10/02 13:40:20;;;;;;;;;;;;;;;;;;5112866;28;1456;-57
2022/10/02 13:43:13;;;;;;;;;;;;;;;;;;5113697;28;1739;-55
2022/10/02 13:45:48;;;;;;;;;;;;;;;;;;5089919;28;2088;-58
2022/10/02 13:48:34;;;;;;;;;;;;;;;;;;5112931;28;1825;-54
2022/10/02 13:51:06;;;;;;;;;;;;;;;;;;5113238;28;1994;-52
2022/10/02 13:53:36;;;;;;;;;;;;;;;;;;5113069;28;2071;-53
2022/10/02 13:56:04;;;;;;;;;;;;;;;;;;5113386;28;1264;-53
2022/10/02 13:58:40;;;;;;;;;;;;;;;;;;5112954;28;1971;-54
2022/10/02 14:01:26;;;;;;;;;;;;;;;;;;5112859;28;1488;-52
2022/10/02 14:04:19;;;;;;;;;;;;;;;;;;5113030;28;1889;-52
2022/10/02 14:06:50;;;;;;;;;;;;;;;;;;5110792;28;1887;-53
2022/10/02 14:09:20;;;;;;;;;;;;;;;;;;5112225;28;1638;-50
2022/10/02 14:12:10;;;;;;;;;;;;;;;;;;5113322;28;1664;-53
2022/10/02 14:14:47;;;;;;;;;;;;;;;;;;5113134;28;1911;-50
2022/10/02 14:17:26;;;;;;;;;;;;;;;;;;5113063;28;2091;-53
2022/10/02 14:19:53;;;;;;;;;;;;;;;;;;5112855;28;1894;-53
2022/10/02 14:22:26;;;;;;;;;;;;;;;;;;5112780;28;1562;-53
2022/10/02 14:25:02;;;;;;;;;;;;;;;;;;5112919;28;1902;-52
2022/10/02 14:27:47;;;;;;;;;;;;;;;;;;5112839;28;1943;-55
2022/10/02 14:30:20;;;;;;;;;;;;;;;;;;5112584;28;1644;-54
2022/10/02 14:33:05;;;;;;;;;;;;;;;;;;5118470;28;1983;-45
2022/10/02 14:35:33;;;;;;;;;;;;;;;;;;5133375;28;1454;-48
2022/10/02 14:38:03;;;;;;;;;;;;;;;;;;5133471;27;1968;-52
2022/10/02 14:40:45;;;;;;;;;;;;;;;;;;5133110;27;1856;-54
2022/10/02 14:43:32;;;;;;;;;;;;;;;;;;5132876;28;2092;-54
2022/10/02 14:46:01;;;;;;;;;;;;;;;;;;5133246;27;1597;-54
2022/10/02 14:48:50;;;;;;;;;;;;;;;;;;5132832;27;1745;-49
2022/10/02 14:51:18;;;;;;;;;;;;;;;;;;5133105;28;1436;-49
2022/10/02 14:53:53;;;;;;;;;;;;;;;;;;5132984;28;1748;-49
2022/10/02 14:56:23;;;;;;;;;;;;;;;;;;5133163;28;1937;-50
2022/10/02 14:58:51;;;;;;;;;;;;;;;;;;5133018;28;1972;-56
2022/10/02 15:01:22;;;;;;;;;;;;;;;;;;5132910;28;1515;-52
2022/10/02 15:03:55;;;;;;;;;;;;;;;;;;5132243;27;1796;-50
2022/10/02 15:06:22;;;;;;;;;;;;;;;;;;5133186;27;1459;-51
2022/10/02 15:08:56;;;;;;;;;;;;;;;;;;5133008;27;1854;-51
2022/10/02 15:11:28;;;;;;;;;;;;;;;;;;5131631;28;1645;-52
2022/10/02 15:14:03;;;;;;;;;;;;;;;;;;5132816;28;1907;-55
2022/10/02 15:19:38;;;;;;;;;;;;;;;;;;5132710;28;1985;-52
2022/10/02 15:22:12;;;;;;;;;;;;;;;;;;5135831;27;1741;-54
2022/10/02 15:24:42;;;;;;;;;;;;;;;;;;5136491;27;1775;-55
2022/10/02 15:27:14;;;;;;;;;;;;;;;;;;5135331;27;1810;-54
2022/10/02 15:29:54;;;;;;;;;;;;;;;;;;5136588;27;2049;-56
2022/10/02 15:32:51;;;;;;;;;;;;;;;;;;5134699;27;1716;-54
2022/10/02 15:35:36;;;;;;;;;;;;;;;;;;5103125;28;1809;-48
2022/10/02 15:38:24;;;;;;;;;;;;;;;;;;5115796;28;1894;-48
2022/10/02 15:40:51;;;;;;;;;;;;;;;;;;5115214;28;2010;-53
2022/10/02 15:43:18;;;;;;;;;;;;;;;;;;5115663;27;1496;-52
2022/10/02 15:45:57;;;;;;;;;;;;;;;;;;5115829;27;1444;-55
2022/10/02 15:48:43;;;;;;;;;;;;;;;;;;5115603;28;1944;-49
2022/10/02 15:51:30;;;;;;;;;;;;;;;;;;5115501;28;1760;-51
2022/10/02 15:54:15;;;;;;;;;;;;;;;;;;5115548;28;1463;-50
2022/10/02 15:56:46;;;;;;;;;;;;;;;;;;5115621;28;1993;-49
2022/10/02 15:59:13;;;;;;;;;;;;;;;;;;5115056;28;1898;-51
2022/10/02 16:01:47;;;;;;;;;;;;;;;;;;5115019;28;1848;-53
2022/10/02 16:04:20;;;;;;;;;;;;;;;;;;5115134;28;1389;-55
2022/10/02 16:07:15;;;;;;;;;;;;;;;;;;5114959;28;1964;-54
2022/10/02 16:10:02;;;;;;;;;;;;;;;;;;5115138;28;2266;-52
2022/10/02 16:12:50;;;;;;;;;;;;;;;;;;5114385;28;1765;-53
2022/10/02 16:15:46;;;;;;;;;;;;;;;;;;5115156;28;1590;-52
2022/10/02 16:18:14;;;;;;;;;;;;;;;;;;5097197;28;1975;-50
2022/10/02 16:20:56;;;;;;;;;;;;;;;;;;5114873;28;1849;-56
2022/10/02 16:23:33;;;;;;;;;;;;;;;;;;5115039;28;2035;-51
2022/10/02 16:26:18;;;;;;;;;;;;;;;;;;5114935;28;1897;-52
2022/10/02 16:28:56;;;;;;;;;;;;;;;;;;5115086;28;1923;-53
2022/10/02 16:31:33;;;;;;;;;;;;;;;;;;5114749;28;1952;-49
2022/10/02 16:34:26;;;;;;;;;;;;;;;;;;5129799;27;1377;-49
2022/10/02 16:36:59;;;;;;;;;;;;;;;;;;5135006;27;2219;-51
2022/10/02 16:39:37;;;;;;;;;;;;;;;;;;5134936;27;2200;-52
2022/10/02 16:42:24;;;;;;;;;;;;;;;;;;5134760;27;1413;-54
2022/10/02 16:45:02;;;;;;;;;;;;;;;;;;5134860;27;1711;-49
2022/10/02 16:47:31;;;;;;;;;;;;;;;;;;5135203;27;1854;-52
2022/10/02 16:50:01;;;;;;;;;;;;;;;;;;5135101;27;1894;-51
2022/10/02 16:52:37;;;;;;;;;;;;;;;;;;5134855;27;1680;-51
2022/10/02 16:55:19;;;;;;;;;;;;;;;;;;5134909;27;1874;-50
2022/10/02 16:58:07;;;;;;;;;;;;;;;;;;5134869;27;2249;-54
2022/10/02 17:00:38;;;;;;;;;;;;;;;;;;5133107;27;1934;-53
2022/10/02 17:03:34;;;;;;;;;;;;;;;;;;5134489;27;1722;-51
2022/10/02 17:06:31;;;;;;;;;;;;;;;;;;5111529;27;1844;-57
2022/10/02 17:09:19;;;;;;;;;;;;;;;;;;5121673;27;1563;-52
2022/10/02 17:12:06;;;;;;;;;;;;;;;;;;5134729;27;1350;-53
2022/10/02 17:14:39;;;;;;;;;;;;;;;;;;5134700;27;1931;-56
2022/10/02 17:17:14;;;;;;;;;;;;;;;;;;5134230;27;1840;-54
2022/10/02 17:19:46;;;;;;;;;;;;;;;;;;5134572;27;1893;-54
2022/10/02 17:22:25;;;;;;;;;;;;;;;;;;5134135;27;1424;-53
2022/10/02 17:25:02;;;;;;;;;;;;;;;;;;5134433;27;1879;-53
2022/10/02 17:27:34;;;;;;;;;;;;;;;;;;5133966;27;2293;-56
2022/10/02 17:30:13;;;;;;;;;;;;;;;;;;5133896;27;1796;-56
2022/10/02 17:32:50;;;;;;;;;;;;;;;;;;5129577;27;2026;-57
2022/10/02 17:35:23;;;;;;;;;;;;;;;;;;5113624;28;1639;-57
2022/10/02 17:38:01;;;;;;;;;;;;;;;;;;5113576;28;1808;-53
2022/10/02 17:40:31;;;;;;;;;;;;;;;;;;5112149;28;2379;-49
2022/10/02 17:43:12;;;;;;;;;;;;;;;;;;5113280;28;2277;-56
2022/10/02 17:45:51;;;;;;;;;;;;;;;;;;5113220;28;1459;-54
2022/10/02 17:48:45;;;;;;;;;;;;;;;;;;5113424;28;1591;-51
2022/10/02 17:51:21;;;;;;;;;;;;;;;;;;5110429;28;1726;-54
2022/10/02 17:56:57;;;;;;;;;;;;;;;;;;5113162;28;1332;-53
2022/10/02 17:59:32;;;;;;;;;;;;;;;;;;5113180;28;2262;-52
2022/10/02 18:02:09;;;;;;;;;;;;;;;;;;5113089;28;1963;-52
2022/10/02 18:04:39;;;;;;;;;;;;;;;;;;5113094;28;1577;-53
2022/10/02 18:07:11;;;;;;;;;;;;;;;;;;5111506;28;1257;-54
2022/10/02 18:09:45;;;;;;;;;;;;;;;;;;5113081;28;1888;-53
2022/10/02 18:12:38;;;;;;;;;;;;;;;;;;5113072;28;1737;-56
2022/10/02 18:15:11;;;;;;;;;;;;;;;;;;5113091;28;1805;-55
2022/10/02 18:17:43;;;;;;;;;;;;;;;;;;5113018;28;1927;-51
2022/10/02 18:20:18;;;;;;;;;;;;;;;;;;5113009;28;1930;-51
2022/10/02 18:23:12;;;;;;;;;;;;;;;;;;5112588;28;1750;-51